Time;durP1;ratioP1;P1;durP2;ratioP2;P2;SDS_P1;SDS_P2;PMS_P1;PMS_P2;Temp;Humidity;BMP_temperature;BMP_pressure;BME280_temperature;BME280_humidity;BME280_pressure;Samples;Min_cycle;Max_cycle;Signal;HPM_P1;HPM_P2
2023/10/03 00:02:00;;;;;;;16.02;8.68;;;;;;;18.99;51.69;100793.13;5121520;27;20076;-64
2023/10/03 00:04:26;;;;;;;17.10;9.32;;;;;;;19.02;51.71;100796.25;5122097;27;20076;-63
2023/10/03 00:06:51;;;;;;;13.52;8.85;;;;;;;19.08;51.41;100791.97;5120229;28;20027;-64
2023/10/03 00:09:16;;;;;;;17.77;8.85;;;;;;;19.14;51.33;100796.56;5121157;27;20032;-64
2023/10/03 00:11:42;;;;;;;14.07;7.93;;;;;;;19.21;51.07;100791.25;5122129;27;20039;-64
2023/10/03 00:14:07;;;;;;;14.98;7.72;;;;;;;19.27;51.65;100798.53;5122439;27;20031;-64
2023/10/03 00:16:34;;;;;;;14.40;7.65;;;;;;;19.26;51.98;100796.88;5121880;28;20035;-64
2023/10/03 00:19:00;;;;;;;9.68;6.30;;;;;;;19.33;52.01;100797.75;5121172;28;20040;-64
2023/10/03 00:21:25;;;;;;;12.43;5.82;;;;;;;19.39;52.03;100797.00;5130919;28;20032;-64
2023/10/03 00:23:51;;;;;;;7.85;5.03;;;;;;;19.46;51.69;100801.41;5120604;28;20035;-64
2023/10/03 00:26:17;;;;;;;8.80;4.68;;;;;;;19.48;51.71;100803.88;5112618;28;20039;-63
2023/10/03 00:28:44;;;;;;;6.95;3.70;;;;;;;19.42;51.47;100805.50;5121620;28;20047;-63
2023/10/03 00:31:11;;;;;;;7.90;3.60;;;;;;;19.36;51.94;100800.91;5111814;28;20037;-64
2023/10/03 00:33:37;;;;;;;7.55;3.75;;;;;;;19.38;52.24;100798.84;5122051;28;20047;-64
2023/10/03 00:36:03;;;;;;;7.07;3.45;;;;;;;19.23;52.68;100779.28;5121446;28;20054;-64
2023/10/03 00:38:29;;;;;;;8.80;3.78;;;;;;;19.37;52.71;100799.03;5122173;28;20066;-63
2023/10/03 00:40:55;;;;;;;6.63;3.85;;;;;;;19.29;52.62;100796.50;5121838;28;20031;-63
2023/10/03 00:43:21;;;;;;;8.63;3.97;;;;;;;19.30;52.64;100806.22;5131849;28;20039;-64
2023/10/03 00:45:51;;;;;;;7.07;3.55;;;;;;;19.30;52.70;100796.28;5121034;28;20036;-64
2023/10/03 00:48:17;;;;;;;7.57;3.45;;;;;;;19.28;52.49;100792.97;5131478;28;20382;-64
2023/10/03 00:50:43;;;;;;;6.65;3.78;;;;;;;19.32;51.99;100798.78;5122411;27;20062;-64
2023/10/03 00:53:09;;;;;;;6.03;3.55;;;;;;;19.30;52.08;100801.66;5135161;27;20343;-64
2023/10/03 00:55:36;;;;;;;6.95;3.83;;;;;;;19.20;53.00;100793.09;5126198;27;20091;-64
2023/10/03 01:00:38;;;;;;;5.63;3.50;;;;;;;19.06;52.54;100794.84;5132386;27;20023;-64
2023/10/03 01:03:09;;;;;;;8.43;3.13;;;;;;;19.12;52.95;100801.28;5125666;27;20053;-64
2023/10/03 01:05:36;;;;;;;8.30;3.72;;;;;;;19.05;53.04;100803.09;5124834;27;20095;-65
2023/10/03 01:08:02;;;;;;;7.10;3.53;;;;;;;19.01;53.06;100802.63;5133829;27;20047;-64
2023/10/03 01:10:27;;;;;;;8.63;3.78;;;;;;;18.96;53.32;100801.53;5125761;27;20038;-64
2023/10/03 01:12:54;;;;;;;6.75;3.50;;;;;;;18.92;53.53;100795.72;5126126;27;20331;-64
2023/10/03 01:15:20;;;;;;;6.30;3.53;;;;;;;18.91;53.55;100801.28;5124793;27;20051;-64
2023/10/03 01:17:49;;;;;;;5.00;3.35;;;;;;;18.94;53.70;100801.75;5124844;27;20287;-64
2023/10/03 01:20:18;;;;;;;9.98;3.75;;;;;;;18.91;53.47;100794.06;5128651;27;20309;-65
2023/10/03 01:22:51;;;;;;;7.70;3.55;;;;;;;18.69;53.69;100790.50;5128969;27;20569;-63
2023/10/03 01:25:17;;;;;;;6.72;3.33;;;;;;;18.79;53.45;100798.28;5124812;27;20031;-64
2023/10/03 01:27:42;;;;;;;7.68;4.15;;;;;;;18.76;53.23;100788.75;5125009;27;20203;-63
2023/10/03 01:30:08;;;;;;;5.90;3.72;;;;;;;18.75;53.14;100794.31;5124566;27;20135;-63
2023/10/03 01:32:48;;;;;;;7.95;3.80;;;;;;;18.73;53.54;100801.72;5124221;27;20371;-64
2023/10/03 01:35:14;;;;;;;6.45;3.67;;;;;;;18.72;53.39;100800.03;5123859;27;20028;-64
2023/10/03 01:37:40;;;;;;;7.22;3.97;;;;;;;18.72;53.11;100797.34;5123725;27;20080;-63
2023/10/03 01:40:16;;;;;;;8.13;4.07;;;;;;;18.67;51.70;100794.41;5125439;27;20114;-64
2023/10/03 01:42:45;;;;;;;7.72;3.50;;;;;;;18.41;52.29;100795.72;5130010;27;20337;-64
2023/10/03 01:45:17;;;;;;;7.68;3.50;;;;;;;18.41;53.10;100795.72;5109674;27;20039;-63
2023/10/03 01:47:48;;;;;;;8.45;3.47;;;;;;;18.43;51.96;100799.03;5127970;27;20119;-63
2023/10/03 01:50:14;;;;;;;5.97;3.83;;;;;;;18.34;51.53;100792.13;5124418;27;20036;-64
2023/10/03 01:52:41;;;;;;;6.80;3.70;;;;;;;18.23;51.96;100789.91;5134038;27;20407;-64
2023/10/03 01:55:17;;;;;;;8.48;3.80;;;;;;;18.21;53.12;100783.91;5124530;27;20044;-64
2023/10/03 01:57:44;;;;;;;8.43;4.18;;;;;;;18.19;52.52;100786.78;5124279;27;20402;-64
2023/10/03 02:02:50;;;;;;;6.43;3.15;;;;;;;18.05;52.70;100792.13;5123357;27;20075;-64
2023/10/03 02:05:18;;;;;;;8.55;3.90;;;;;;;18.01;52.74;100796.22;5124744;27;20349;-63
2023/10/03 02:07:45;;;;;;;5.93;3.25;;;;;;;17.95;52.12;100789.75;5123508;27;20120;-64
2023/10/03 02:10:12;;;;;;;9.20;3.53;;;;;;;17.84;52.41;100799.06;5123036;27;20624;-64
2023/10/03 02:12:48;;;;;;;10.65;3.72;;;;;;;17.79;52.28;100798.78;5123933;27;20050;-63
2023/10/03 02:15:15;;;;;;;7.32;4.20;;;;;;;17.42;54.00;100796.06;5123509;27;20039;-64
2023/10/03 02:17:40;;;;;;;8.38;4.00;;;;;;;17.26;54.72;100799.72;5124416;27;20063;-63
2023/10/03 02:20:13;;;;;;;7.25;4.18;;;;;;;17.27;55.02;100804.06;5131659;27;20043;-64
2023/10/03 02:22:38;;;;;;;7.05;3.67;;;;;;;17.15;55.24;100781.41;5134936;27;20031;-63
2023/10/03 02:25:04;;;;;;;6.63;3.90;;;;;;;17.28;55.02;100796.88;5124174;27;20314;-63
2023/10/03 02:27:30;;;;;;;6.47;3.63;;;;;;;17.21;55.28;100804.78;5124466;27;20333;-64
2023/10/03 02:29:58;;;;;;;7.97;3.60;;;;;;;17.26;53.65;100804.25;5123244;27;20039;-64
2023/10/03 02:32:25;;;;;;;7.63;3.47;;;;;;;17.28;54.60;100800.38;5125369;27;20570;-63
2023/10/03 02:34:50;;;;;;;8.73;4.65;;;;;;;17.31;55.13;100808.03;5132809;27;20476;-64
2023/10/03 02:37:16;;;;;;;7.63;3.88;;;;;;;17.21;54.63;100807.44;5123100;27;20039;-64
2023/10/03 02:39:43;;;;;;;5.75;3.72;;;;;;;17.03;55.92;100818.47;5122723;27;20039;-64
2023/10/03 02:42:09;;;;;;;7.45;3.83;;;;;;;16.99;55.29;100814.47;5122139;27;20023;-63
2023/10/03 02:44:36;;;;;;;8.77;4.05;;;;;;;17.01;55.68;100808.94;5132252;27;20039;-64
2023/10/03 02:47:04;;;;;;;7.18;3.30;;;;;;;17.05;55.41;100807.56;5123896;27;20043;-63
2023/10/03 02:49:30;;;;;;;6.35;3.90;;;;;;;17.16;54.83;100810.66;5122852;27;20038;-63
2023/10/03 02:51:55;;;;;;;12.57;3.65;;;;;;;17.07;54.85;100818.94;5122833;27;20035;-64
2023/10/03 02:54:22;;;;;;;9.63;4.03;;;;;;;17.14;55.35;100817.22;5122242;27;20047;-64
2023/10/03 02:56:48;;;;;;;6.00;3.38;;;;;;;17.11;54.73;100817.56;5122213;27;20035;-64
2023/10/03 02:59:13;;;;;;;10.35;4.25;;;;;;;16.96;54.58;100822.03;5132270;27;20034;-63
2023/10/03 03:01:38;;;;;;;7.38;3.92;;;;;;;16.96;55.80;100820.19;5131806;27;20085;-64
2023/10/03 03:04:04;;;;;;;9.88;4.40;;;;;;;16.96;56.54;100817.50;5123306;27;20076;-63
2023/10/03 03:06:31;;;;;;;6.75;3.80;;;;;;;16.97;57.43;100819.16;5123497;27;20260;-63
2023/10/03 03:08:57;;;;;;;9.45;3.97;;;;;;;16.85;57.87;100817.91;5122928;27;20293;-63
2023/10/03 03:11:22;;;;;;;9.27;4.65;;;;;;;16.87;56.68;100815.88;5122456;27;20035;-63
2023/10/03 03:13:49;;;;;;;7.60;4.05;;;;;;;16.89;57.66;100819.22;5122094;27;20263;-64
2023/10/03 03:16:15;;;;;;;13.32;5.63;;;;;;;16.89;56.95;100817.38;5123162;27;20288;-63
2023/10/03 03:18:41;;;;;;;7.85;4.03;;;;;;;16.88;57.89;100812.22;5122565;27;20059;-63
2023/10/03 03:21:09;;;;;;;7.82;3.63;;;;;;;16.78;58.22;100811.59;5122399;27;20051;-64
2023/10/03 03:23:39;;;;;;;11.63;4.82;;;;;;;16.75;58.77;100815.47;5109315;27;20101;-64
2023/10/03 03:26:17;;;;;;;7.30;4.00;;;;;;;16.72;59.28;100813.13;5126655;27;20031;-64
2023/10/03 03:28:45;;;;;;;10.75;4.90;;;;;;;16.75;59.36;100811.94;5123022;27;20031;-64
2023/10/03 03:31:22;;;;;;;9.25;4.35;;;;;;;16.75;59.16;100812.78;5121661;27;20054;-63
2023/10/03 03:33:52;;;;;;;11.75;4.22;;;;;;;16.64;58.46;100809.59;5121786;27;20102;-63
2023/10/03 03:36:19;;;;;;;8.45;4.15;;;;;;;16.52;58.37;100817.19;5132868;27;20046;-64
2023/10/03 03:38:46;;;;;;;8.52;4.25;;;;;;;16.56;58.91;100811.31;5122693;27;20423;-64
2023/10/03 03:41:12;;;;;;;10.52;4.80;;;;;;;16.63;58.12;100810.63;5121408;27;20386;-63
2023/10/03 03:43:38;;;;;;;8.30;4.72;;;;;;;16.68;57.86;100808.31;5122537;27;20027;-64
2023/10/03 03:46:04;;;;;;;9.10;4.35;;;;;;;16.66;57.02;100808.50;5122654;27;20060;-64
2023/10/03 03:48:29;;;;;;;9.00;4.40;;;;;;;16.64;56.42;100810.44;5103851;28;20386;-64
2023/10/03 03:51:09;;;;;;;9.25;4.28;;;;;;;16.58;56.08;100814.66;5121295;27;20098;-63
2023/10/03 03:53:35;;;;;;;8.55;4.65;;;;;;;16.54;56.29;100807.16;5130598;27;20107;-64
2023/10/03 03:56:03;;;;;;;8.82;4.50;;;;;;;16.50;57.29;100813.84;5121392;27;20043;-64
2023/10/03 03:58:30;;;;;;;9.88;4.40;;;;;;;16.45;58.19;100811.72;5121764;27;20221;-63
2023/10/03 04:00:56;;;;;;;16.45;6.15;;;;;;;16.42;59.24;100806.72;5120936;27;20045;-63
2023/10/03 04:03:23;;;;;;;13.65;6.35;;;;;;;16.34;59.57;100808.59;5121069;27;20213;-63
2023/10/03 04:05:49;;;;;;;13.60;5.47;;;;;;;16.29;58.12;100812.63;5121664;27;20080;-64
2023/10/03 04:08:18;;;;;;;12.23;5.00;;;;;;;16.32;57.14;100810.59;5121417;27;20317;-63
2023/10/03 04:10:43;;;;;;;10.80;5.40;;;;;;;16.32;57.96;100818.63;5121115;27;20031;-63
2023/10/03 04:13:15;;;;;;;16.38;6.95;;;;;;;16.25;57.87;100816.63;5120522;27;20050;-63
2023/10/03 04:15:40;;;;;;;17.42;7.07;;;;;;;16.23;59.78;100815.97;5130196;27;20077;-63
2023/10/03 04:18:07;;;;;;;15.60;6.82;;;;;;;16.17;59.74;100815.84;5120317;27;20031;-63
2023/10/03 04:20:35;;;;;;;13.80;6.47;;;;;;;16.21;59.83;100822.50;5128290;28;20063;-63
2023/10/03 04:23:03;;;;;;;14.80;6.63;;;;;;;16.20;59.53;100827.00;5130520;27;20045;-63
2023/10/03 04:25:30;;;;;;;28.48;7.82;;;;;;;16.19;59.43;100820.00;5130943;28;20281;-63
2023/10/03 04:27:56;;;;;;;21.92;8.90;;;;;;;16.17;59.87;100819.34;5126264;27;20068;-63
2023/10/03 04:30:25;;;;;;;20.65;7.97;;;;;;;16.14;60.58;100818.84;5125344;27;20384;-63
2023/10/03 04:32:51;;;;;;;19.73;9.30;;;;;;;16.11;60.91;100819.19;5126521;27;20106;-63
2023/10/03 04:35:20;;;;;;;20.60;8.57;;;;;;;16.12;60.95;100821.69;5133634;27;20081;-64
2023/10/03 04:37:46;;;;;;;19.05;8.20;;;;;;;16.24;60.46;100816.81;5126296;27;20047;-63
2023/10/03 04:40:21;;;;;;;18.30;8.57;;;;;;;16.35;59.93;100818.28;5126199;27;20046;-63
2023/10/03 04:42:47;;;;;;;25.02;9.98;;;;;;;16.18;60.49;100829.03;5126124;27;20044;-63
2023/10/03 04:45:18;;;;;;;18.15;8.85;;;;;;;16.15;61.14;100833.88;5126260;27;20043;-63
2023/10/03 04:47:45;;;;;;;23.20;10.23;;;;;;;16.22;60.83;100841.03;5126142;27;20121;-64
2023/10/03 04:50:11;;;;;;;20.85;8.63;;;;;;;16.10;61.00;100839.72;5126312;27;20099;-64
2023/10/03 04:52:38;;;;;;;19.33;8.05;;;;;;;15.84;62.13;100837.28;5126380;27;20032;-64
2023/10/03 04:55:04;;;;;;;17.83;7.55;;;;;;;15.89;62.04;100842.13;5124873;27;20086;-64
2023/10/03 04:57:30;;;;;;;16.77;7.10;;;;;;;15.94;61.58;100845.13;5125673;27;20321;-64
2023/10/03 04:59:56;;;;;;;15.70;7.60;;;;;;;15.75;62.58;100840.13;5134602;27;20044;-63
2023/10/03 05:02:22;;;;;;;13.40;6.90;;;;;;;15.77;62.89;100840.81;5125332;27;20034;-62
2023/10/03 05:04:48;;;;;;;14.65;8.18;;;;;;;15.91;62.35;100848.97;5124060;27;20329;-62
2023/10/03 05:07:13;;;;;;;15.20;9.75;;;;;;;15.98;61.91;100846.44;5124855;27;20039;-63
2023/10/03 05:09:38;;;;;;;14.95;7.93;;;;;;;16.02;62.06;100844.25;5124666;27;20023;-62
2023/10/03 05:12:05;;;;;;;15.48;6.90;;;;;;;16.12;61.53;100835.06;5135742;27;20039;-62
2023/10/03 05:14:31;;;;;;;14.95;7.03;;;;;;;16.01;62.08;100842.59;5125497;27;20035;-62
2023/10/03 05:17:00;;;;;;;16.30;7.20;;;;;;;15.98;62.37;100851.78;5125694;27;20035;-63
2023/10/03 05:19:25;;;;;;;19.02;6.72;;;;;;;16.02;62.38;100847.78;5124362;27;20043;-62
2023/10/03 05:21:52;;;;;;;16.45;7.18;;;;;;;15.98;62.83;100856.28;5124332;27;20080;-62
2023/10/03 05:24:19;;;;;;;18.02;6.75;;;;;;;15.90;63.24;100851.81;5134553;27;20326;-62
2023/10/03 05:26:45;;;;;;;12.63;6.05;;;;;;;15.86;63.53;100858.47;5128335;27;20378;-62
2023/10/03 05:29:10;;;;;;;14.07;5.82;;;;;;;16.03;62.89;100869.97;5132615;27;20058;-62
2023/10/03 05:31:40;;;;;;;14.13;6.82;;;;;;;16.00;63.36;100875.66;5131728;27;20320;-62
2023/10/03 05:34:07;;;;;;;13.32;7.07;;;;;;;16.08;62.57;100864.94;5132780;27;20035;-63
2023/10/03 05:36:32;;;;;;;15.82;6.47;;;;;;;16.01;63.14;100864.81;5132218;27;20046;-63
2023/10/03 05:38:58;;;;;;;13.32;6.07;;;;;;;16.14;62.53;100867.78;5124642;27;20035;-63
2023/10/03 05:41:23;;;;;;;13.43;6.88;;;;;;;16.35;62.20;100875.22;5125109;27;20039;-63
2023/10/03 05:43:49;;;;;;;14.57;6.57;;;;;;;16.53;61.16;100873.16;5124684;27;20062;-63
2023/10/03 05:46:15;;;;;;;14.57;6.60;;;;;;;16.58;61.12;100881.50;5124732;27;20031;-62
2023/10/03 05:48:40;;;;;;;11.95;5.80;;;;;;;16.79;60.68;100880.97;5128239;27;20042;-63
2023/10/03 05:51:06;;;;;;;12.05;5.72;;;;;;;16.85;60.64;100882.94;5129554;27;20094;-62
2023/10/03 05:53:32;;;;;;;17.63;7.05;;;;;;;17.01;60.40;100879.34;5124150;27;20313;-63
2023/10/03 05:55:58;;;;;;;17.00;5.57;;;;;;;17.17;60.10;100889.94;5124168;27;20039;-62
2023/10/03 05:58:23;;;;;;;16.08;5.97;;;;;;;17.39;59.78;100885.63;5124428;27;20325;-63
2023/10/03 06:00:49;;;;;;;13.63;6.60;;;;;;;17.55;58.83;100890.00;5130254;27;20027;-62
2023/10/03 06:03:18;;;;;;;14.07;6.47;;;;;;;17.70;58.27;100890.13;5132496;27;20111;-63
2023/10/03 06:05:45;;;;;;;14.30;6.63;;;;;;;17.78;58.18;100892.72;5136454;27;20042;-63
2023/10/03 06:08:12;;;;;;;11.52;5.65;;;;;;;17.98;57.82;100895.72;5136083;27;20036;-63
2023/10/03 06:10:40;;;;;;;11.30;5.57;;;;;;;18.07;57.65;100894.63;5135132;27;20067;-62
2023/10/03 06:13:09;;;;;;;11.90;5.18;;;;;;;18.12;58.15;100894.91;5135217;27;20023;-62
2023/10/03 06:15:36;;;;;;;15.77;7.28;;;;;;;18.50;57.44;100901.88;5134550;27;20086;-63
2023/10/03 06:18:02;;;;;;;12.48;6.35;;;;;;;18.63;55.82;100895.88;5134717;27;20034;-62
2023/10/03 06:20:28;;;;;;;21.02;9.70;;;;;;;18.77;55.90;100888.84;5134818;27;20042;-63
2023/10/03 06:22:54;;;;;;;14.57;8.60;;;;;;;18.86;55.40;100894.94;5136247;27;20031;-62
2023/10/03 06:25:19;;;;;;;13.68;5.63;;;;;;;19.09;55.08;100890.28;5135282;27;20321;-63
2023/10/03 06:27:45;;;;;;;12.35;6.90;;;;;;;19.25;54.93;100900.78;5134902;27;20041;-62
2023/10/03 06:30:11;;;;;;;11.00;5.80;;;;;;;19.29;54.14;100899.38;5135037;27;20341;-62
2023/10/03 06:32:36;;;;;;;8.48;5.10;;;;;;;19.10;54.62;100903.50;5136367;27;20031;-62
2023/10/03 06:35:04;;;;;;;13.23;5.20;;;;;;;18.98;54.86;100901.50;5133550;27;20031;-62
2023/10/03 06:37:30;;;;;;;11.88;5.03;;;;;;;19.12;54.64;100903.31;5135847;27;20324;-63
2023/10/03 06:39:56;;;;;;;9.27;5.95;;;;;;;19.37;54.50;100903.78;5135029;27;20626;-63
2023/10/03 06:42:23;;;;;;;10.68;5.20;;;;;;;19.59;53.93;100905.47;5134924;27;20031;-62
2023/10/03 06:44:49;;;;;;;9.18;5.32;;;;;;;19.75;53.21;100909.75;5134856;27;20071;-62
2023/10/03 06:47:14;;;;;;;11.10;5.38;;;;;;;19.78;53.20;100909.41;5134888;27;20031;-63
2023/10/03 06:49:40;;;;;;;9.48;5.28;;;;;;;19.75;53.06;100907.06;5134440;27;20042;-62
2023/10/03 06:52:05;;;;;;;10.77;6.22;;;;;;;19.75;52.50;100910.59;5134708;27;20015;-63
2023/10/03 06:54:31;;;;;;;17.48;5.65;;;;;;;19.95;52.87;100910.78;5133707;27;20335;-62
2023/10/03 06:56:56;;;;;;;13.07;6.13;;;;;;;19.90;52.83;100913.22;5135208;27;20372;-63
2023/10/03 06:59:22;;;;;;;9.05;5.82;;;;;;;20.08;52.57;100908.19;5134749;27;20035;-62
2023/10/03 07:01:47;;;;;;;9.70;5.53;;;;;;;20.27;51.98;100916.59;5134165;27;20214;-63
2023/10/03 07:04:12;;;;;;;9.55;5.60;;;;;;;20.07;51.33;100914.59;5129842;27;20042;-63
2023/10/03 07:06:38;;;;;;;14.38;5.78;;;;;;;20.08;51.88;100913.56;5133803;27;20347;-62
2023/10/03 07:09:07;;;;;;;11.60;4.80;;;;;;;20.22;51.45;100906.41;5135459;27;20039;-63
2023/10/03 07:11:33;;;;;;;14.70;7.25;;;;;;;20.22;51.15;100919.88;5135323;27;20027;-62
2023/10/03 07:13:59;;;;;;;17.27;7.15;;;;;;;20.32;51.19;100920.34;5135308;27;20083;-63
2023/10/03 07:16:24;;;;;;;11.35;6.25;;;;;;;20.40;50.80;100916.72;5134988;27;20371;-64
2023/10/03 07:18:50;;;;;;;8.75;5.50;;;;;;;20.56;50.57;100918.25;5135366;27;20539;-63
2023/10/03 07:21:15;;;;;;;8.63;5.43;;;;;;;20.56;50.45;100910.16;5135009;27;20023;-63
2023/10/03 07:23:42;;;;;;;10.98;5.50;;;;;;;20.62;51.14;100920.97;5135502;27;20080;-62
2023/10/03 07:26:07;;;;;;;11.55;5.63;;;;;;;20.83;50.02;100917.38;5134578;27;20027;-63
2023/10/03 07:28:33;;;;;;;10.25;5.38;;;;;;;20.94;48.77;100921.34;5133899;27;20064;-62
2023/10/03 07:30:58;;;;;;;12.10;6.13;;;;;;;20.94;48.79;100910.59;5134840;27;20297;-63
2023/10/03 07:33:24;;;;;;;11.38;6.20;;;;;;;21.04;49.22;100908.34;5135962;27;20367;-62
2023/10/03 07:35:50;;;;;;;8.55;4.80;;;;;;;21.26;48.95;100907.19;5133449;27;20038;-63
2023/10/03 07:38:16;;;;;;;10.77;5.20;;;;;;;21.25;48.02;100904.69;5134820;27;20058;-62
2023/10/03 07:40:41;;;;;;;11.13;5.35;;;;;;;21.46;48.35;100907.22;5134426;27;20035;-63
2023/10/03 07:43:09;;;;;;;10.75;5.40;;;;;;;21.58;47.75;100908.28;5134123;27;20072;-62
2023/10/03 07:45:38;;;;;;;9.15;5.30;;;;;;;21.78;47.54;100910.16;5134619;27;20039;-63
2023/10/03 07:48:05;;;;;;;11.85;6.68;;;;;;;21.69;46.85;100909.53;5131205;27;20145;-62
2023/10/03 07:50:34;;;;;;;11.57;5.75;;;;;;;21.90;46.58;100897.75;5137461;27;20795;-63
2023/10/03 07:52:59;;;;;;;9.38;5.65;;;;;;;21.97;46.10;100898.56;5121314;27;20058;-63
2023/10/03 07:55:25;;;;;;;8.75;4.85;;;;;;;21.94;46.25;100905.22;5131056;27;20362;-63
2023/10/03 07:57:54;;;;;;;11.63;6.35;;;;;;;22.09;46.42;100902.31;5121415;27;20533;-62
2023/10/03 08:00:20;;;;;;;10.93;5.68;;;;;;;22.11;46.42;100902.13;5121318;27;20106;-63
2023/10/03 08:02:49;;;;;;;10.30;5.28;;;;;;;22.23;46.39;100905.84;5121404;27;20043;-63
2023/10/03 08:05:15;;;;;;;11.75;7.32;;;;;;;22.23;46.65;100898.56;5121861;27;20102;-63
2023/10/03 08:07:47;;;;;;;11.20;7.20;;;;;;;22.20;46.33;100900.84;5121165;27;20026;-63
2023/10/03 08:10:16;;;;;;;8.30;6.05;;;;;;;22.40;46.87;100898.13;5120944;27;20393;-63
2023/10/03 08:12:43;;;;;;;14.23;6.53;;;;;;;22.55;45.87;100896.84;5121118;27;20035;-62
2023/10/03 08:15:17;;;;;;;9.40;5.63;;;;;;;22.71;45.57;100889.31;5120254;27;20106;-63
2023/10/03 08:17:48;;;;;;;8.25;5.00;;;;;;;22.83;43.80;100893.03;5121943;27;20397;-63
2023/10/03 08:20:14;;;;;;;10.13;5.88;;;;;;;22.79;43.37;100887.19;5121458;27;20050;-63
2023/10/03 08:22:46;;;;;;;10.77;5.30;;;;;;;22.83;43.91;100885.75;5121441;28;20027;-63
2023/10/03 08:25:11;;;;;;;8.88;4.65;;;;;;;22.92;41.33;100898.00;5121824;28;20229;-63
2023/10/03 08:27:37;;;;;;;8.25;4.18;;;;;;;22.93;40.63;100890.72;5130402;28;20032;-63
2023/10/03 08:30:04;;;;;;;8.73;4.55;;;;;;;22.96;40.74;100884.06;5126032;28;20027;-63
2023/10/03 08:32:39;;;;;;;9.70;4.90;;;;;;;22.95;41.30;100882.41;5125159;28;20032;-63
2023/10/03 08:35:08;;;;;;;9.25;4.47;;;;;;;22.91;42.10;100884.69;5121827;28;20043;-63
2023/10/03 08:37:38;;;;;;;10.05;5.13;;;;;;;22.99;41.31;100880.94;5130309;28;20058;-63
2023/10/03 08:40:19;;;;;;;8.38;4.55;;;;;;;23.09;41.04;100882.13;5121492;28;20325;-63
2023/10/03 08:42:52;;;;;;;9.60;5.53;;;;;;;23.14;40.57;100879.59;5122017;28;20356;-63
2023/10/03 08:45:22;;;;;;;7.15;4.07;;;;;;;22.91;40.89;100884.69;5122083;28;20035;-63
2023/10/03 08:47:53;;;;;;;8.63;5.93;;;;;;;22.92;41.29;100883.66;5122880;28;20237;-62
2023/10/03 08:50:35;;;;;;;7.20;4.32;;;;;;;23.10;40.45;100881.06;5121847;28;20040;-63
2023/10/03 08:53:26;;;;;;;7.97;3.70;;;;;;;23.23;40.25;100878.28;5122719;27;20114;-64
2023/10/03 08:55:57;;;;;;;7.95;3.85;;;;;;;23.29;39.97;100878.47;5121987;28;20377;-63
2023/10/03 08:58:26;;;;;;;6.93;3.25;;;;;;;23.03;38.57;100874.03;5122298;28;20032;-63
2023/10/03 09:00:58;;;;;;;7.28;3.47;;;;;;;23.01;38.29;100862.63;5121807;28;20035;-64
2023/10/03 09:06:20;;;;;;;7.38;3.67;;;;;;;23.09;39.19;100868.59;5120964;28;20059;-63
2023/10/03 09:09:08;;;;;;;9.35;4.38;;;;;;;22.63;39.77;100864.19;5121282;28;20035;-63
2023/10/03 09:11:37;;;;;;;7.60;4.18;;;;;;;22.47;39.93;100863.84;5121323;27;20027;-63
2023/10/03 09:14:07;;;;;;;7.80;3.60;;;;;;;22.51;39.96;100865.06;5125428;27;20046;-63
2023/10/03 09:16:39;;;;;;;6.90;3.60;;;;;;;22.55;40.23;100863.63;5124744;27;20052;-63
2023/10/03 09:19:23;;;;;;;10.48;4.00;;;;;;;22.51;39.40;100868.59;5134189;27;20034;-63
2023/10/03 09:21:51;;;;;;;6.50;3.75;;;;;;;22.51;39.70;100865.06;5124541;27;20131;-63
2023/10/03 09:24:20;;;;;;;7.55;4.03;;;;;;;22.31;39.35;100859.75;5123945;27;20103;-63
2023/10/03 09:26:54;;;;;;;8.50;4.53;;;;;;;22.07;41.06;100852.31;5124228;27;20241;-63
2023/10/03 09:29:30;;;;;;;7.10;3.45;;;;;;;22.18;40.81;100851.69;5123896;27;20104;-63
2023/10/03 09:32:15;;;;;;;7.22;3.90;;;;;;;22.21;40.10;100854.78;5124308;27;20254;-62
2023/10/03 09:34:42;;;;;;;7.55;3.78;;;;;;;22.22;39.88;100848.34;5124806;27;20043;-63
2023/10/03 09:37:07;;;;;;;7.10;3.30;;;;;;;21.97;40.88;100842.78;5124488;27;20043;-63
2023/10/03 09:39:47;;;;;;;6.88;3.40;;;;;;;22.02;40.52;100841.31;5123902;27;20039;-63
2023/10/03 09:42:16;;;;;;;5.28;3.55;;;;;;;21.99;40.45;100842.56;5123461;27;20035;-63
2023/10/03 09:44:50;;;;;;;10.25;4.15;;;;;;;22.02;40.81;100834.03;5129963;27;20035;-63
2023/10/03 09:47:19;;;;;;;;;;;;;;;22.05;39.65;100840.91;5125731;27;20099;-64
2023/10/03 09:49:46;;;;;;;11.13;4.38;;;;;;;22.03;39.81;100835.75;5122843;27;20128;-63
2023/10/03 09:52:33;;;;;;;6.47;3.97;;;;;;;21.84;39.96;100836.53;5133533;27;20043;-63
2023/10/03 09:55:02;;;;;;;5.93;3.72;;;;;;;21.86;40.12;100827.22;5123758;27;20261;-64
2023/10/03 09:57:29;;;;;;;6.97;4.47;;;;;;;21.98;40.25;100828.25;5124693;27;20027;-64
2023/10/03 09:59:55;;;;;;;9.18;4.47;;;;;;;21.91;39.65;100821.22;5133614;27;20031;-63
2023/10/03 10:02:31;;;;;;;9.95;5.22;;;;;;;21.93;39.79;100819.97;5123817;27;20030;-63
2023/10/03 10:05:19;;;;;;;8.77;5.22;;;;;;;21.73;39.47;100811.03;5123781;27;20027;-63
2023/10/03 10:08:09;;;;;;;9.70;4.80;;;;;;;22.01;41.17;100810.00;5124660;27;20038;-63
2023/10/03 10:10:35;;;;;;;7.55;4.70;;;;;;;22.04;39.54;100802.34;5124108;27;20233;-63
2023/10/03 10:13:23;;;;;;;8.73;4.60;;;;;;;22.04;38.68;100812.28;5124217;27;20382;-63
2023/10/03 10:16:01;;;;;;;7.18;4.60;;;;;;;22.07;38.84;100803.78;5123578;27;20035;-63
2023/10/03 10:18:45;;;;;;;10.50;5.00;;;;;;;22.19;38.64;100805.59;5133792;27;20404;-63
2023/10/03 10:21:23;;;;;;;8.05;4.68;;;;;;;22.26;38.77;100790.22;5126927;27;20439;-63
2023/10/03 10:24:16;;;;;;;10.13;5.05;;;;;;;22.38;39.54;100789.56;5122578;27;20235;-63
2023/10/03 10:26:49;;;;;;;9.63;4.05;;;;;;;22.26;38.34;100790.22;5123583;27;20083;-63
2023/10/03 10:29:24;;;;;;;7.88;4.40;;;;;;;22.18;38.36;100789.63;5132650;27;20583;-62
2023/10/03 10:32:00;;;;;;;10.05;4.55;;;;;;;22.12;37.66;100783.22;5123987;27;20348;-63
2023/10/03 10:34:36;;;;;;;8.77;4.47;;;;;;;22.22;38.02;100780.91;5121893;27;20034;-63
2023/10/03 10:37:09;;;;;;;8.43;5.50;;;;;;;22.25;37.67;100782.34;5122711;27;20046;-64
2023/10/03 10:42:59;;;;;;;7.75;4.55;;;;;;;22.49;37.13;100762.72;5120515;27;20035;-64
2023/10/03 10:45:37;;;;;;;6.47;5.15;;;;;;;22.54;36.10;100752.13;5123807;27;20076;-63
2023/10/03 10:48:04;;;;;;;6.85;5.07;;;;;;;22.36;37.62;100765.50;5125605;27;20043;-64
2023/10/03 10:51:01;;;;;;;7.75;4.40;;;;;;;22.48;37.55;100761.06;5123539;27;20138;-63
2023/10/03 10:53:39;;;;;;;7.80;4.80;;;;;;;22.51;37.85;100762.50;5123041;27;20160;-64
2023/10/03 10:56:11;;;;;;;7.95;4.45;;;;;;;22.41;37.42;100749.47;5123662;27;20039;-63
2023/10/03 10:58:53;;;;;;;7.68;4.80;;;;;;;22.52;37.23;100750.69;5125759;27;20039;-64
2023/10/03 11:01:22;;;;;;;10.02;4.97;;;;;;;22.66;37.40;100744.16;5127386;27;20068;-63
2023/10/03 11:03:48;;;;;;;7.28;4.82;;;;;;;22.75;37.00;100736.63;5122580;27;20325;-64
2023/10/03 11:06:17;;;;;;;9.63;5.05;;;;;;;22.77;36.30;100737.22;5123514;27;20035;-63
2023/10/03 11:08:50;;;;;;;8.70;5.00;;;;;;;22.67;35.92;100732.31;5122965;27;20035;-63
2023/10/03 11:11:17;;;;;;;10.60;5.30;;;;;;;22.66;35.77;100735.22;5123065;27;20090;-63
2023/10/03 11:13:51;;;;;;;8.82;5.07;;;;;;;22.70;35.27;100726.47;5122612;27;20074;-63
2023/10/03 11:16:21;;;;;;;7.38;4.35;;;;;;;22.74;35.65;100732.28;5104075;27;20059;-63
2023/10/03 11:18:47;;;;;;;8.45;6.05;;;;;;;22.64;35.38;100724.66;5122619;27;20214;-64
2023/10/03 11:21:13;;;;;;;7.80;4.38;;;;;;;22.79;35.81;100718.94;5126184;27;20076;-63
2023/10/03 11:23:38;;;;;;;8.85;4.65;;;;;;;22.86;35.97;100712.47;5128108;27;20036;-64
2023/10/03 11:26:05;;;;;;;8.50;4.68;;;;;;;22.75;36.47;100709.63;5122731;27;20023;-64
2023/10/03 11:28:44;;;;;;;8.23;4.68;;;;;;;22.68;36.04;100708.84;5123150;27;20032;-64
2023/10/03 11:31:09;;;;;;;8.50;4.63;;;;;;;22.68;36.39;100714.25;5122583;27;20318;-63
2023/10/03 11:34:01;;;;;;;7.45;4.45;;;;;;;22.59;36.14;100714.50;5122500;27;20039;-63
2023/10/03 11:36:42;;;;;;;8.32;4.60;;;;;;;22.63;36.47;100699.53;5120919;27;20078;-63
2023/10/03 11:39:08;;;;;;;10.52;5.88;;;;;;;22.78;37.35;100693.81;5134942;27;20063;-64
2023/10/03 11:41:34;;;;;;;8.02;4.97;;;;;;;22.91;36.47;100699.19;5123732;27;20416;-63